createdAt,value
2023-02-24T00:01:28.104Z,7.68
2023-02-24T00:03:56.897Z,7.97
2023-02-24T00:06:38.875Z,7.78
2023-02-24T00:09:21.907Z,7.97
2023-02-24T00:11:58.494Z,7.60
2023-02-24T00:14:26.870Z,8.10
2023-02-24T00:16:53.673Z,7.13
2023-02-24T00:19:24.182Z,7.50
2023-02-24T00:21:51.593Z,8.00
2023-02-24T00:24:18.236Z,7.28
2023-02-24T00:26:45.801Z,7.45
2023-02-24T00:29:13.363Z,8.18
2023-02-24T00:31:42.044Z,7.80
2023-02-24T00:34:09.216Z,7.50
2023-02-24T00:36:35.581Z,7.35
2023-02-24T00:39:09.265Z,7.47
2023-02-24T00:41:45.103Z,6.93
2023-02-24T00:44:13.155Z,6.85
2023-02-24T00:46:44.720Z,7.45
2023-02-24T00:49:12.858Z,7.32
2023-02-24T00:51:40.766Z,7.20
2023-02-24T00:54:08.065Z,7.05
2023-02-24T00:56:34.839Z,7.00
2023-02-24T00:59:02.490Z,6.65
2023-02-24T01:01:31.356Z,7.00
2023-02-24T01:03:58.030Z,7.13
2023-02-24T01:06:25.987Z,7.20
2023-02-24T01:08:53.484Z,6.95
2023-02-24T01:11:39.902Z,6.88
2023-02-24T01:14:11.781Z,7.50
2023-02-24T01:16:38.245Z,7.20
2023-02-24T01:19:05.903Z,7.05
2023-02-24T01:21:32.421Z,7.00
2023-02-24T01:23:58.922Z,7.32
2023-02-24T01:26:26.713Z,6.70
2023-02-24T01:28:56.711Z,7.30
2023-02-24T01:31:24.035Z,6.47
2023-02-24T01:33:52.180Z,6.63
2023-02-24T01:36:20.357Z,7.07
2023-02-24T01:38:49.056Z,6.70
2023-02-24T01:41:17.188Z,7.03
2023-02-24T01:43:58.922Z,6.45
2023-02-24T01:46:26.368Z,6.78
2023-02-24T01:48:55.645Z,6.47
2023-02-24T01:51:22.323Z,6.95
2023-02-24T01:53:49.430Z,6.75
2023-02-24T01:56:16.177Z,6.63
2023-02-24T01:58:43.023Z,6.82
2023-02-24T02:01:10.345Z,6.40
2023-02-24T02:03:38.324Z,6.63
2023-02-24T02:06:06.609Z,6.55
2023-02-24T02:08:36.575Z,6.32
2023-02-24T02:11:04.608Z,6.60
2023-02-24T02:13:31.322Z,6.47
2023-02-24T02:16:13.928Z,6.00
2023-02-24T02:18:44.992Z,6.50
2023-02-24T02:21:15.378Z,6.60
2023-02-24T02:23:50.629Z,6.80
2023-02-24T02:26:19.805Z,6.20
2023-02-24T02:28:46.253Z,6.45
2023-02-24T02:31:31.307Z,5.93
2023-02-24T02:34:13.104Z,6.07
2023-02-24T02:36:51.843Z,6.03
2023-02-24T02:39:21.237Z,6.20
2023-02-24T02:41:55.062Z,5.72
2023-02-24T02:44:28.554Z,5.88
2023-02-24T02:47:10.477Z,5.90
2023-02-24T02:49:40.528Z,5.55
2023-02-24T02:52:13.724Z,5.63
2023-02-24T02:54:40.196Z,5.63
2023-02-24T02:57:14.628Z,5.63
2023-02-24T02:59:43.745Z,5.28
2023-02-24T03:02:13.432Z,5.05
2023-02-24T03:04:42.394Z,5.20
2023-02-24T03:07:09.737Z,5.28
2023-02-24T03:09:38.231Z,5.60
2023-02-24T03:12:08.370Z,5.40
2023-02-24T03:14:37.942Z,5.15
2023-02-24T03:17:09.474Z,5.10
2023-02-24T03:19:37.958Z,5.28
2023-02-24T03:22:25.451Z,5.13
2023-02-24T03:24:52.024Z,5.15
2023-02-24T03:27:28.948Z,5.57
2023-02-24T03:30:00.411Z,5.18
2023-02-24T03:32:33.633Z,5.17
2023-02-24T03:35:04.600Z,5.25
2023-02-24T03:37:33.542Z,5.20
2023-02-24T03:40:07.596Z,5.20
2023-02-24T03:42:34.842Z,5.07
2023-02-24T03:45:01.820Z,4.72
2023-02-24T03:47:28.283Z,5.05
2023-02-24T03:49:54.674Z,4.63
2023-02-24T03:52:39.814Z,4.90
2023-02-24T03:55:25.123Z,4.88
2023-02-24T03:58:01.595Z,4.80
2023-02-24T04:00:37.179Z,5.03
2023-02-24T04:03:09.656Z,4.90
2023-02-24T04:05:42.160Z,4.75
2023-02-24T04:08:09.224Z,4.50
2023-02-24T04:10:35.673Z,4.35
2023-02-24T04:13:10.332Z,4.97
2023-02-24T04:15:45.632Z,4.80
2023-02-24T04:18:27.415Z,4.88
2023-02-24T04:20:55.597Z,4.38
2023-02-24T04:23:29.230Z,5.03
2023-02-24T04:25:56.413Z,4.55
2023-02-24T04:28:23.612Z,5.05
2023-02-24T04:30:51.733Z,4.50
2023-02-24T04:33:18.340Z,4.90
2023-02-24T04:35:45.754Z,4.40
2023-02-24T04:38:12.244Z,4.53
2023-02-24T04:40:40.878Z,4.45
2023-02-24T04:43:07.880Z,4.50
2023-02-24T04:45:34.336Z,4.45
2023-02-24T04:48:02.160Z,4.55
2023-02-24T04:50:33.255Z,5.07
2023-02-24T04:53:01.177Z,4.53
2023-02-24T04:55:34.747Z,4.57
2023-02-24T04:58:01.410Z,4.20
2023-02-24T05:00:33.485Z,4.10
2023-02-24T05:03:01.884Z,4.68
2023-02-24T05:05:28.674Z,4.63
2023-02-24T05:07:55.969Z,4.18
2023-02-24T05:10:28.220Z,4.43
2023-02-24T05:15:21.041Z,4.25
2023-02-24T05:17:50.547Z,4.40
2023-02-24T05:20:35.560Z,4.82
2023-02-24T05:23:02.955Z,4.78
2023-02-24T05:25:31.600Z,4.88
2023-02-24T05:27:58.006Z,4.90
2023-02-24T05:30:24.580Z,4.32
2023-02-24T05:32:54.164Z,4.07
2023-02-24T05:35:20.731Z,4.13
2023-02-24T05:37:47.592Z,4.43
2023-02-24T05:40:14.855Z,4.43
2023-02-24T05:42:41.523Z,4.60
2023-02-24T05:45:11.050Z,4.63
2023-02-24T05:47:38.089Z,4.70
2023-02-24T05:50:04.704Z,4.70
2023-02-24T05:52:31.367Z,4.30
2023-02-24T05:54:57.893Z,4.60
2023-02-24T05:57:27.495Z,4.63
2023-02-24T05:59:55.955Z,4.38
2023-02-24T06:02:27.821Z,4.72
2023-02-24T06:04:55.654Z,4.30
2023-02-24T06:07:26.592Z,4.38
2023-02-24T06:09:57.397Z,4.00
2023-02-24T06:12:42.215Z,4.22
2023-02-24T06:15:08.869Z,4.00
2023-02-24T06:17:35.422Z,3.65
2023-02-24T06:20:02.243Z,3.80
2023-02-24T06:22:28.776Z,3.80
2023-02-24T06:24:55.373Z,4.60
2023-02-24T06:27:24.745Z,4.15
2023-02-24T06:29:53.895Z,4.10
2023-02-24T06:32:22.183Z,3.90
2023-02-24T06:34:49.033Z,3.92
2023-02-24T06:37:16.300Z,4.15
2023-02-24T06:39:43.556Z,3.95
2023-02-24T06:42:11.921Z,4.10
2023-02-24T06:44:39.174Z,3.88
2023-02-24T06:47:07.134Z,3.80
2023-02-24T06:49:33.981Z,3.70
2023-02-24T06:52:00.604Z,3.75
2023-02-24T06:54:30.752Z,3.78
2023-02-24T06:56:58.824Z,3.78
2023-02-24T06:59:28.741Z,3.60
2023-02-24T07:01:56.110Z,3.80
2023-02-24T07:04:27.783Z,3.42
2023-02-24T07:06:56.524Z,3.42
2023-02-24T07:09:24.181Z,3.03
2023-02-24T07:11:52.547Z,3.50
2023-02-24T07:14:30.777Z,3.35
2023-02-24T07:16:58.310Z,3.47
2023-02-24T07:19:26.088Z,3.20
2023-02-24T07:21:59.804Z,2.88
2023-02-24T07:24:33.128Z,3.00
2023-02-24T07:27:01.683Z,3.20
2023-02-24T07:29:29.383Z,3.20
2023-02-24T07:31:58.736Z,3.50
2023-02-24T07:34:25.386Z,3.22
2023-02-24T07:36:52.652Z,2.67
2023-02-24T07:39:19.615Z,3.10
2023-02-24T07:41:49.697Z,2.55
2023-02-24T07:44:19.795Z,2.92
2023-02-24T07:46:48.925Z,2.95
2023-02-24T07:49:18.448Z,2.88
2023-02-24T07:51:45.280Z,2.90
2023-02-24T07:54:11.814Z,2.63
2023-02-24T07:56:46.189Z,2.92
2023-02-24T07:59:15.717Z,2.30
2023-02-24T08:01:49.790Z,2.47
2023-02-24T08:04:17.833Z,2.78
2023-02-24T08:06:47.842Z,2.60
2023-02-24T08:09:20.412Z,2.65
2023-02-24T08:14:14.056Z,2.65
2023-02-24T08:16:44.280Z,2.58
2023-02-24T08:19:14.964Z,2.35
2023-02-24T08:21:47.234Z,2.53
2023-02-24T08:26:53.853Z,2.00
2023-02-24T08:29:20.558Z,2.28
2023-02-24T08:31:47.441Z,2.10
2023-02-24T08:34:16.153Z,2.08
2023-02-24T08:36:48.458Z,2.53
2023-02-24T08:39:14.891Z,2.40
2023-02-24T08:41:51.412Z,1.90
2023-02-24T08:44:21.901Z,2.20
2023-02-24T08:46:52.415Z,2.25
2023-02-24T08:49:19.195Z,2.10
2023-02-24T08:51:46.910Z,2.20
2023-02-24T08:54:17.705Z,2.50
2023-02-24T08:56:49.096Z,1.92
2023-02-24T08:59:29.334Z,2.00
2023-02-24T09:02:17.047Z,2.13
2023-02-24T09:04:47.026Z,2.20
2023-02-24T09:07:17.938Z,1.63
2023-02-24T09:09:44.608Z,2.03
2023-02-24T09:12:22.181Z,2.05
2023-02-24T09:14:49.705Z,2.13
2023-02-24T09:17:20.638Z,1.95
2023-02-24T09:19:48.515Z,1.80
2023-02-24T09:22:31.555Z,1.98
2023-02-24T09:25:17.942Z,1.90
2023-02-24T09:28:08.006Z,2.08
2023-02-24T09:30:39.343Z,1.50
2023-02-24T09:33:17.798Z,1.60
2023-02-24T09:35:46.858Z,2.00
2023-02-24T09:38:16.823Z,1.67
2023-02-24T09:40:50.874Z,1.70
2023-02-24T09:43:24.388Z,1.40
2023-02-24T09:46:02.212Z,1.77
2023-02-24T09:48:47.281Z,1.73
2023-02-24T09:51:22.273Z,1.80
2023-02-24T09:53:52.704Z,1.60
2023-02-24T09:56:22.212Z,1.38
2023-02-24T09:58:53.186Z,1.60
2023-02-24T10:01:23.002Z,1.55
2023-02-24T10:04:20.099Z,1.30
2023-02-24T10:06:48.843Z,1.70
2023-02-24T10:09:35.439Z,1.80
2023-02-24T10:12:14.078Z,1.50
2023-02-24T10:14:51.136Z,1.73
2023-02-24T10:17:25.807Z,1.27
2023-02-24T10:20:00.011Z,1.60
2023-02-24T10:22:29.546Z,1.60
2023-02-24T10:25:12.654Z,1.77
2023-02-24T10:28:08.431Z,1.33
2023-02-24T10:31:01.653Z,1.52
2023-02-24T10:33:37.873Z,1.20
2023-02-24T10:36:09.299Z,1.90
2023-02-24T10:38:40.965Z,1.50
2023-02-24T10:41:09.386Z,1.20
2023-02-24T10:43:45.643Z,1.60
2023-02-24T10:46:35.100Z,1.48
2023-02-24T10:49:10.083Z,1.30
2023-02-24T10:51:38.631Z,1.48
2023-02-24T10:54:23.179Z,1.30
2023-02-24T10:57:05.833Z,1.50
2023-02-24T10:59:58.273Z,1.13
2023-02-24T11:02:32.979Z,1.23
2023-02-24T11:05:16.999Z,0.80
2023-02-24T11:07:53.975Z,1.30
2023-02-24T11:10:32.983Z,1.15
2023-02-24T11:13:19.363Z,1.15
2023-02-24T11:16:06.543Z,1.25
2023-02-24T11:18:33.021Z,1.30
2023-02-24T11:21:04.149Z,0.90
2023-02-24T11:23:39.695Z,1.00
2023-02-24T11:26:18.473Z,1.00
2023-02-24T11:29:04.165Z,0.85
2023-02-24T11:31:49.400Z,0.90
2023-02-24T11:34:25.129Z,0.80
2023-02-24T11:37:11.731Z,0.80
2023-02-24T11:39:41.172Z,0.90
2023-02-24T11:42:11.402Z,0.90
2023-02-24T11:44:37.856Z,1.00
2023-02-24T11:47:11.408Z,0.93
2023-02-24T11:49:50.651Z,0.60
2023-02-24T11:52:19.443Z,0.82
2023-02-24T11:54:49.688Z,0.70
2023-02-24T11:57:42.300Z,0.90
2023-02-24T12:00:16.540Z,0.70
2023-02-24T12:02:43.605Z,0.73
2023-02-24T12:05:10.023Z,0.80
2023-02-24T12:07:38.973Z,0.70
2023-02-24T12:10:16.557Z,0.90
2023-02-24T12:12:49.856Z,0.90
2023-02-24T12:15:24.624Z,0.60
2023-02-24T12:18:01.781Z,0.80
2023-02-24T12:20:48.478Z,0.75
2023-02-24T12:23:29.057Z,0.60
2023-02-24T12:26:08.844Z,0.63
2023-02-24T12:28:45.471Z,0.50
2023-02-24T12:31:32.205Z,0.80
2023-02-24T12:34:12.166Z,1.10
2023-02-24T12:36:43.598Z,0.98
2023-02-24T12:39:42.583Z,0.87
2023-02-24T12:42:24.158Z,1.00
2023-02-24T12:44:56.497Z,1.03
2023-02-24T12:49:58.313Z,0.90
2023-02-24T12:52:38.106Z,1.00
2023-02-24T12:55:05.980Z,1.15
2023-02-24T12:57:51.250Z,1.05
2023-02-24T13:00:20.642Z,1.38
2023-02-24T13:02:50.148Z,1.00
2023-02-24T13:05:27.248Z,1.10
2023-02-24T13:08:08.670Z,1.20
2023-02-24T13:10:54.065Z,1.33
2023-02-24T13:13:23.186Z,1.10
2023-02-24T13:15:51.539Z,1.10
2023-02-24T13:18:28.952Z,1.15
2023-02-24T13:21:09.640Z,1.23
2023-02-24T13:23:36.962Z,1.25
2023-02-24T13:26:04.039Z,1.52
2023-02-24T13:28:33.371Z,1.30
2023-02-24T13:31:04.908Z,1.08
2023-02-24T13:33:35.843Z,1.40
2023-02-24T13:36:22.164Z,1.17
2023-02-24T13:38:50.333Z,1.15
2023-02-24T13:41:28.713Z,1.30
2023-02-24T13:43:59.656Z,1.05
2023-02-24T13:46:30.280Z,0.93
2023-02-24T13:49:15.348Z,1.02
2023-02-24T13:51:41.739Z,1.15
2023-02-24T13:54:20.432Z,1.33
2023-02-24T13:56:46.856Z,1.20
2023-02-24T13:59:32.004Z,1.15
2023-02-24T14:02:03.508Z,1.17
2023-02-24T14:04:33.804Z,1.00
2023-02-24T14:07:05.040Z,0.88
2023-02-24T14:09:35.322Z,1.17
2023-02-24T14:12:04.463Z,1.25
2023-02-24T14:14:31.412Z,1.40
2023-02-24T14:16:57.927Z,1.00
2023-02-24T14:19:25.536Z,0.80
2023-02-24T14:21:57.673Z,1.20
2023-02-24T14:24:24.537Z,1.27
2023-02-24T14:26:51.937Z,1.08
2023-02-24T14:29:22.577Z,0.93
2023-02-24T14:31:53.801Z,1.00
2023-02-24T14:34:22.140Z,1.00
2023-02-24T14:36:49.776Z,0.90
2023-02-24T14:39:16.224Z,0.90
2023-02-24T14:41:43.430Z,1.00
2023-02-24T14:44:18.908Z,1.08
2023-02-24T14:46:46.075Z,0.90
2023-02-24T14:49:24.212Z,1.15
2023-02-24T14:51:54.956Z,0.73
2023-02-24T14:54:29.505Z,0.95
2023-02-24T14:56:56.117Z,0.90
2023-02-24T14:59:29.720Z,0.90
2023-02-24T15:01:56.758Z,1.20
2023-02-24T15:04:26.297Z,0.93
2023-02-24T15:06:52.869Z,0.95
2023-02-24T15:09:21.576Z,0.85
2023-02-24T15:11:48.928Z,0.90
2023-02-24T15:14:24.213Z,1.15
2023-02-24T15:16:56.237Z,0.82
2023-02-24T15:19:37.363Z,1.00
2023-02-24T15:22:20.665Z,1.00
2023-02-24T15:24:47.205Z,0.90
2023-02-24T15:27:13.584Z,1.08
2023-02-24T15:29:40.161Z,0.77
2023-02-24T15:32:13.945Z,0.98
2023-02-24T15:34:43.992Z,0.80
2023-02-24T15:37:22.256Z,0.80
2023-02-24T15:39:48.907Z,0.70
2023-02-24T15:42:28.756Z,0.90
2023-02-24T15:44:56.712Z,0.82
2023-02-24T15:47:24.721Z,0.80
2023-02-24T15:49:51.220Z,0.68
2023-02-24T15:52:20.369Z,0.77
2023-02-24T15:54:46.793Z,0.73
2023-02-24T15:57:14.726Z,0.73
2023-02-24T15:59:41.201Z,0.85
2023-02-24T16:02:15.977Z,0.80
2023-02-24T16:04:42.401Z,0.85
2023-02-24T16:07:11.409Z,0.82
2023-02-24T16:09:39.656Z,0.60
2023-02-24T16:12:08.956Z,0.55
2023-02-24T16:14:35.492Z,0.90
2023-02-24T16:17:04.055Z,0.70
2023-02-24T16:19:30.885Z,0.90
2023-02-24T16:21:57.350Z,0.80
2023-02-24T16:24:23.818Z,0.68
2023-02-24T16:26:50.318Z,0.60
2023-02-24T16:29:16.736Z,0.57
2023-02-24T16:31:43.500Z,0.70
2023-02-24T16:34:12.229Z,0.70
2023-02-24T16:36:38.611Z,0.60
2023-02-24T16:39:05.149Z,0.80
2023-02-24T16:41:31.544Z,0.65
2023-02-24T16:43:57.929Z,0.60
2023-02-24T16:46:35.308Z,0.70
2023-02-24T16:49:01.675Z,0.90
2023-02-24T16:51:29.116Z,0.82
2023-02-24T16:53:55.501Z,0.80
2023-02-24T16:56:22.311Z,0.90
2023-02-24T16:58:48.942Z,0.70
2023-02-24T17:01:20.418Z,0.90
2023-02-24T17:03:48.769Z,0.80
2023-02-24T17:06:15.338Z,0.77
2023-02-24T17:08:43.751Z,0.70
2023-02-24T17:11:18.086Z,0.90
2023-02-24T17:13:44.585Z,0.80
2023-02-24T17:16:11.200Z,0.82
2023-02-24T17:18:37.696Z,1.15
2023-02-24T17:21:04.525Z,0.80
2023-02-24T17:23:32.265Z,0.73
2023-02-24T17:26:00.284Z,1.40
2023-02-24T17:28:27.157Z,1.08
2023-02-24T17:30:53.689Z,1.10
2023-02-24T17:33:21.185Z,0.90
2023-02-24T17:35:47.804Z,1.17
2023-02-24T17:38:18.443Z,1.30
2023-02-24T17:40:45.310Z,1.25
2023-02-24T17:43:12.305Z,1.33
2023-02-24T17:45:43.037Z,1.10
2023-02-24T17:48:10.024Z,1.20
2023-02-24T17:50:36.465Z,1.33
2023-02-24T17:53:02.858Z,1.40
2023-02-24T17:55:29.315Z,1.25
2023-02-24T17:57:57.156Z,1.42
2023-02-24T18:00:23.887Z,1.30
2023-02-24T18:02:50.400Z,1.48
2023-02-24T18:05:16.953Z,1.20
2023-02-24T18:07:43.406Z,1.75
2023-02-24T18:10:10.085Z,1.30
2023-02-24T18:12:36.834Z,1.40
2023-02-24T18:15:08.562Z,1.33
2023-02-24T18:20:02.333Z,1.38
2023-02-24T18:22:28.732Z,1.50
2023-02-24T18:24:55.166Z,1.63
2023-02-24T18:27:22.352Z,1.50
2023-02-24T18:29:48.867Z,1.60
2023-02-24T18:32:15.556Z,1.75
2023-02-24T18:34:42.282Z,1.52
2023-02-24T18:37:08.693Z,1.65
2023-02-24T18:39:35.172Z,1.90
2023-02-24T18:42:01.621Z,1.70
2023-02-24T18:44:28.062Z,1.70
2023-02-24T18:46:54.583Z,2.03
2023-02-24T18:49:21.015Z,2.00
2023-02-24T18:51:49.000Z,2.20
2023-02-24T18:54:16.231Z,1.98
2023-02-24T18:56:42.832Z,2.65
2023-02-24T18:59:09.247Z,2.80
2023-02-24T19:01:36.508Z,2.70
2023-02-24T19:04:03.392Z,2.97
2023-02-24T19:06:31.794Z,3.22
2023-02-24T19:08:59.663Z,2.97
2023-02-24T19:11:26.679Z,3.38
2023-02-24T19:13:53.229Z,3.40
2023-02-24T19:16:19.744Z,3.47
2023-02-24T19:18:49.343Z,3.60
2023-02-24T19:21:15.732Z,3.72
2023-02-24T19:23:42.230Z,3.90
2023-02-24T19:26:15.708Z,4.18
2023-02-24T19:28:42.096Z,3.60
2023-02-24T19:31:12.853Z,3.75
2023-02-24T19:33:39.296Z,4.00
2023-02-24T19:36:05.861Z,3.75
2023-02-24T19:38:32.311Z,4.30
2023-02-24T19:40:59.298Z,4.18
2023-02-24T19:43:25.772Z,3.95
2023-02-24T19:45:52.270Z,3.80
2023-02-24T19:48:18.708Z,3.88
2023-02-24T19:50:46.267Z,4.05
2023-02-24T19:53:12.722Z,4.22
2023-02-24T19:55:39.115Z,3.85
2023-02-24T19:58:05.512Z,4.13
2023-02-24T20:00:31.881Z,3.92
2023-02-24T20:02:58.303Z,3.47
2023-02-24T20:05:25.040Z,3.90
2023-02-24T20:07:52.579Z,3.97
2023-02-24T20:10:19.127Z,3.65
2023-02-24T20:12:45.575Z,3.67
2023-02-24T20:15:12.142Z,3.67
2023-02-24T20:17:38.567Z,3.83
2023-02-24T20:20:05.234Z,3.40
2023-02-24T20:22:31.686Z,3.70
2023-02-24T20:24:58.329Z,3.83
2023-02-24T20:27:24.828Z,3.40
2023-02-24T20:29:53.496Z,3.72
2023-02-24T20:32:20.228Z,3.50
2023-02-24T20:34:46.802Z,3.45
2023-02-24T20:37:13.267Z,2.95
2023-02-24T20:39:39.989Z,3.05
2023-02-24T20:42:06.665Z,2.92
2023-02-24T20:44:33.072Z,3.00
2023-02-24T20:46:59.482Z,3.10
2023-02-24T20:49:27.072Z,3.20
2023-02-24T20:51:53.547Z,3.20
2023-02-24T20:54:20.310Z,3.35
2023-02-24T20:56:47.052Z,3.20
2023-02-24T20:59:18.265Z,3.13
2023-02-24T21:01:47.379Z,3.10
2023-02-24T21:04:15.137Z,3.25
2023-02-24T21:06:41.576Z,3.08
2023-02-24T21:09:08.040Z,2.95
2023-02-24T21:11:34.813Z,3.05
2023-02-24T21:14:01.339Z,3.17
2023-02-24T21:16:27.847Z,3.58
2023-02-24T21:18:55.879Z,3.25
2023-02-24T21:21:22.476Z,3.08
2023-02-24T21:23:49.010Z,3.03
2023-02-24T21:26:15.444Z,3.22
2023-02-24T21:28:41.879Z,3.00
2023-02-24T21:31:10.184Z,3.30
2023-02-24T21:33:36.731Z,2.90
2023-02-24T21:36:06.631Z,2.92
2023-02-24T21:38:36.749Z,2.75
2023-02-24T21:41:04.144Z,3.20
2023-02-24T21:43:30.949Z,3.45
2023-02-24T21:46:00.551Z,3.17
2023-02-24T21:48:27.123Z,2.72
2023-02-24T21:51:00.845Z,3.00
2023-02-24T21:53:27.620Z,3.05
2023-02-24T21:56:26.587Z,3.20
2023-02-24T21:58:54.496Z,3.30
2023-02-24T22:01:22.991Z,2.90
2023-02-24T22:03:49.477Z,2.53
2023-02-24T22:06:17.792Z,2.97
2023-02-24T22:08:45.643Z,2.85
2023-02-24T22:11:13.782Z,2.95
2023-02-24T22:13:40.748Z,2.88
2023-02-24T22:16:08.189Z,3.28
2023-02-24T22:18:34.726Z,2.78
2023-02-24T22:21:05.102Z,2.60
2023-02-24T22:23:31.470Z,2.90
2023-02-24T22:26:01.632Z,3.15
2023-02-24T22:28:28.373Z,2.95
2023-02-24T22:30:56.193Z,2.92
2023-02-24T22:33:22.888Z,2.72
2023-02-24T22:35:49.334Z,2.85
2023-02-24T22:38:16.479Z,2.60
2023-02-24T22:40:42.898Z,3.20
2023-02-24T22:43:09.317Z,2.70
2023-02-24T22:45:35.793Z,2.60
2023-02-24T22:48:02.237Z,2.88
2023-02-24T22:50:28.700Z,2.60
2023-02-24T22:52:55.106Z,2.60
2023-02-24T22:55:21.589Z,2.70
2023-02-24T22:57:48.021Z,2.30
2023-02-24T23:00:20.241Z,2.72
2023-02-24T23:05:13.672Z,2.70
2023-02-24T23:07:40.251Z,2.50
2023-02-24T23:10:07.000Z,2.60
2023-02-24T23:12:33.404Z,2.30
2023-02-24T23:14:59.867Z,2.40
2023-02-24T23:17:26.308Z,2.42
2023-02-24T23:19:52.764Z,2.20
2023-02-24T23:22:19.193Z,2.53
2023-02-24T23:24:45.634Z,2.35
2023-02-24T23:27:12.175Z,2.53
2023-02-24T23:29:38.578Z,2.33
2023-02-24T23:32:05.148Z,2.53
2023-02-24T23:34:31.645Z,2.28
2023-02-24T23:36:58.129Z,2.08
2023-02-24T23:39:24.630Z,1.98
2023-02-24T23:41:56.462Z,1.95
2023-02-24T23:44:23.742Z,2.08
2023-02-24T23:46:50.168Z,2.00
2023-02-24T23:49:16.570Z,1.73
2023-02-24T23:51:48.598Z,2.00
2023-02-24T23:54:16.480Z,1.63
2023-02-24T23:56:42.961Z,1.83
2023-02-24T23:59:09.442Z,2.03
